DKK weather

Chautauqua County-Dunkirk Airport
Dunkirk, New York, United States

Public forecast

Using degrees Fahrenheit for public forecast. Weather courtesy of forecast.io.

METAR (pilot weather report)

Retrieved 2019/04/26 02:53 UTC (24 minutes ago):

KDKK 260253Z AUTO 11006KT 9SM -RA OVC038 13/11 A2973 RMK AO2 RAB0156 SLP069 P0005 60005 T01280111 58016 $

TAF (pilot weather forecast)

Forecast is more than 12 hours old.

Closest forecast is Chautauqua County-Jamestown Airport, 20.4 nm (37.8 km) S. Retrieved 2019/04/25 00:42 UTC (1 day ago):

TAF KJHW 252340Z 2600/2624 16008KT P6SM OVC040 FM260100 16008KT 6SM -RA OVC025 FM260300 16010KT 2SM -RA BR OVC007 FM260500 16010KT 3SM -RA BR OVC012 FM260900 16012KT 3SM -RA BR OVC012 WS020/18045KT FM261500 17014G22KT 5SM -RA BR OVC012 FM262100 28016G24KT P6SM OVC007